createdAt,value
2022-09-09T00:01:22.135Z,25.42
2022-09-09T00:03:54.488Z,21.73
2022-09-09T00:06:24.054Z,24.25
2022-09-09T00:09:00.420Z,26.90
2022-09-09T00:11:50.234Z,18.58
2022-09-09T00:14:26.828Z,17.33
2022-09-09T00:16:56.473Z,34.63
2022-09-09T00:19:25.480Z,22.80
2022-09-09T00:21:58.712Z,20.30
2022-09-09T00:24:27.752Z,15.57
2022-09-09T00:27:02.086Z,20.35
2022-09-09T00:29:42.713Z,19.67
2022-09-09T00:32:19.618Z,19.45
2022-09-09T00:34:52.023Z,21.05
2022-09-09T00:37:19.632Z,12.63
2022-09-09T00:39:48.156Z,16.85
2022-09-09T00:42:15.004Z,11.60
2022-09-09T00:44:52.102Z,15.27
2022-09-09T00:47:26.337Z,25.02
2022-09-09T00:50:02.757Z,23.05
2022-09-09T00:52:29.190Z,30.95
2022-09-09T00:55:13.986Z,22.70
2022-09-09T00:57:42.610Z,29.27
2022-09-09T01:00:21.826Z,26.60
2022-09-09T01:02:53.484Z,30.77
2022-09-09T01:05:38.922Z,28.35
2022-09-09T01:08:10.304Z,29.13
2022-09-09T01:10:50.612Z,34.05
2022-09-09T01:13:27.898Z,30.77
2022-09-09T01:15:58.384Z,34.05
2022-09-09T01:18:29.170Z,28.13
2022-09-09T01:20:56.563Z,28.58
2022-09-09T01:23:39.547Z,36.47
2022-09-09T01:26:11.298Z,25.90
2022-09-09T01:28:38.647Z,29.00
2022-09-09T01:31:07.187Z,29.25
2022-09-09T01:33:33.796Z,26.10
2022-09-09T01:36:06.522Z,33.17
2022-09-09T01:38:33.949Z,25.98
2022-09-09T01:41:00.742Z,24.38
2022-09-09T01:43:28.728Z,31.30
2022-09-09T01:45:56.788Z,20.90
2022-09-09T01:48:25.124Z,28.63
2022-09-09T01:50:54.189Z,18.38
2022-09-09T01:53:21.942Z,28.60
2022-09-09T01:55:53.216Z,15.32
2022-09-09T01:58:39.406Z,18.48
2022-09-09T02:01:12.112Z,26.90
2022-09-09T02:03:38.741Z,19.05
2022-09-09T02:06:11.475Z,26.40
2022-09-09T02:08:40.923Z,25.05
2022-09-09T02:11:12.522Z,24.65
2022-09-09T02:13:39.668Z,20.92
2022-09-09T02:16:12.619Z,15.88
2022-09-09T02:18:46.227Z,18.73
2022-09-09T02:21:14.850Z,23.40
2022-09-09T02:23:43.162Z,18.45
2022-09-09T02:26:16.017Z,18.55
2022-09-09T02:28:43.388Z,22.13
2022-09-09T02:31:10.405Z,24.33
2022-09-09T02:33:41.055Z,13.27
2022-09-09T02:36:09.888Z,19.75
2022-09-09T02:38:38.622Z,14.77
2022-09-09T02:41:05.151Z,20.05
2022-09-09T02:43:32.446Z,20.33
2022-09-09T02:46:02.013Z,18.10
2022-09-09T02:48:36.124Z,22.27
2022-09-09T02:51:11.543Z,25.25
2022-09-09T02:53:43.043Z,25.30
2022-09-09T02:56:17.211Z,25.13
2022-09-09T02:58:43.749Z,26.05
2022-09-09T03:01:10.336Z,19.30
2022-09-09T03:03:36.827Z,24.65
2022-09-09T03:06:03.419Z,23.30
2022-09-09T03:08:30.019Z,28.45
2022-09-09T03:10:56.987Z,29.08
2022-09-09T03:13:23.451Z,30.60
2022-09-09T03:15:49.912Z,35.15
2022-09-09T03:18:16.397Z,34.78
2022-09-09T03:20:43.141Z,29.27
2022-09-09T03:23:14.987Z,25.83
2022-09-09T03:25:47.632Z,25.60
2022-09-09T03:28:14.161Z,39.70
2022-09-09T03:30:40.627Z,25.25
2022-09-09T03:33:07.397Z,30.73
2022-09-09T03:35:33.855Z,23.73
2022-09-09T03:38:01.776Z,25.80
2022-09-09T03:40:28.263Z,33.97
2022-09-09T03:42:54.847Z,23.23
2022-09-09T03:45:21.304Z,22.88
2022-09-09T03:47:47.827Z,28.95
2022-09-09T03:50:14.339Z,32.30
2022-09-09T03:52:42.116Z,27.15
2022-09-09T03:55:09.301Z,22.60
2022-09-09T03:57:36.066Z,27.42
2022-09-09T04:00:04.740Z,24.35
2022-09-09T04:02:31.295Z,30.10
2022-09-09T04:04:57.850Z,26.90
2022-09-09T04:07:24.314Z,17.73
2022-09-09T04:09:50.766Z,24.10
2022-09-09T04:12:17.682Z,21.98
2022-09-09T04:14:44.143Z,19.15
2022-09-09T04:17:11.130Z,18.77
2022-09-09T04:19:37.599Z,14.43
2022-09-09T04:22:05.276Z,21.50
2022-09-09T04:24:31.765Z,12.95
2022-09-09T04:26:58.441Z,24.38
2022-09-09T04:29:24.972Z,20.63
2022-09-09T04:31:51.448Z,14.48
2022-09-09T04:34:18.479Z,20.42
2022-09-09T04:36:44.985Z,21.35
2022-09-09T04:39:11.426Z,18.10
2022-09-09T04:41:38.802Z,22.00
2022-09-09T04:44:05.266Z,16.17
2022-09-09T04:46:31.722Z,22.08
2022-09-09T04:48:58.172Z,30.00
2022-09-09T04:51:24.714Z,19.50
2022-09-09T04:53:52.101Z,30.23
2022-09-09T04:56:18.882Z,31.17
2022-09-09T04:58:46.597Z,30.23
2022-09-09T05:01:21.129Z,19.92
2022-09-09T05:03:47.847Z,23.58
2022-09-09T05:06:15.555Z,18.25
2022-09-09T05:08:42.974Z,24.13
2022-09-09T05:11:24.470Z,15.07
2022-09-09T05:13:51.399Z,16.52
2022-09-09T05:16:18.507Z,25.83
2022-09-09T05:18:45.463Z,23.73
2022-09-09T05:21:12.777Z,12.77
2022-09-09T05:23:39.539Z,23.85
2022-09-09T05:26:06.418Z,20.27
2022-09-09T05:28:35.028Z,30.67
2022-09-09T05:31:04.991Z,20.45
2022-09-09T05:33:32.274Z,19.48
2022-09-09T05:35:59.979Z,19.42
2022-09-09T05:38:28.727Z,17.80
2022-09-09T05:40:57.086Z,29.80
2022-09-09T05:43:24.000Z,28.98
2022-09-09T05:46:02.143Z,27.23
2022-09-09T05:48:29.259Z,25.25
2022-09-09T05:50:55.722Z,28.15
2022-09-09T05:53:22.266Z,24.45
2022-09-09T05:55:49.284Z,28.75
2022-09-09T05:58:17.841Z,32.63
2022-09-09T06:00:45.427Z,35.42
2022-09-09T06:03:12.861Z,32.13
2022-09-09T06:05:39.725Z,33.80
2022-09-09T06:08:06.203Z,36.35
2022-09-09T06:10:32.871Z,47.45
2022-09-09T06:12:59.375Z,39.88
2022-09-09T06:15:25.881Z,26.98
2022-09-09T06:17:55.983Z,30.83
2022-09-09T06:20:23.060Z,27.77
2022-09-09T06:22:49.808Z,32.45
2022-09-09T06:25:16.334Z,28.48
2022-09-09T06:27:43.283Z,33.67
2022-09-09T06:30:10.891Z,34.00
2022-09-09T06:32:38.922Z,28.33
2022-09-09T06:35:05.836Z,27.58
2022-09-09T06:37:32.379Z,38.92
2022-09-09T06:40:01.458Z,21.27
2022-09-09T06:42:28.334Z,32.97
2022-09-09T06:44:54.847Z,38.45
2022-09-09T06:47:24.635Z,30.85
2022-09-09T06:49:51.555Z,26.15
2022-09-09T06:52:19.378Z,31.80
2022-09-09T06:54:46.417Z,35.03
2022-09-09T06:57:34.024Z,34.05
2022-09-09T06:59:59.538Z,35.05
2022-09-09T07:02:26.190Z,29.73
2022-09-09T07:04:52.688Z,28.45
2022-09-09T07:07:19.177Z,23.05
2022-09-09T07:09:46.628Z,26.17
2022-09-09T07:12:13.494Z,27.80
2022-09-09T07:14:40.530Z,27.10
2022-09-09T07:17:06.986Z,29.83
2022-09-09T07:19:33.454Z,25.50
2022-09-09T07:21:59.977Z,27.00
2022-09-09T07:24:26.474Z,30.55
2022-09-09T07:26:53.197Z,25.42
2022-09-09T07:29:21.020Z,39.92
2022-09-09T07:31:47.877Z,33.72
2022-09-09T07:36:59.049Z,34.28
2022-09-09T07:39:25.540Z,32.53
2022-09-09T07:41:52.156Z,25.10
2022-09-09T07:44:22.514Z,34.65
2022-09-09T07:46:49.307Z,30.83
2022-09-09T07:49:16.088Z,29.73
2022-09-09T07:51:43.908Z,18.90
2022-09-09T07:54:12.169Z,20.55
2022-09-09T07:56:40.168Z,26.58
2022-09-09T07:59:07.457Z,21.75
2022-09-09T08:01:41.798Z,25.83
2022-09-09T08:04:10.111Z,25.98
2022-09-09T08:06:38.281Z,29.25
2022-09-09T08:09:05.832Z,25.45
2022-09-09T08:11:38.662Z,27.75
2022-09-09T08:14:06.039Z,31.23
2022-09-09T08:16:34.158Z,31.20
2022-09-09T08:19:00.798Z,20.60
2022-09-09T08:21:29.107Z,22.58
2022-09-09T08:23:58.159Z,25.05
2022-09-09T08:26:29.419Z,23.55
2022-09-09T08:28:57.583Z,23.08
2022-09-09T08:31:25.435Z,22.63
2022-09-09T08:33:53.358Z,21.23
2022-09-09T08:36:24.063Z,14.18
2022-09-09T08:38:51.506Z,23.52
2022-09-09T08:41:27.127Z,15.93
2022-09-09T08:44:01.963Z,21.85
2022-09-09T08:46:33.481Z,24.30
2022-09-09T08:49:04.208Z,21.30
2022-09-09T08:51:32.159Z,23.98
2022-09-09T08:54:00.095Z,23.35
2022-09-09T08:56:27.758Z,26.98
2022-09-09T08:58:55.052Z,25.13
2022-09-09T09:01:24.579Z,15.05
2022-09-09T09:03:54.214Z,17.13
2022-09-09T09:06:28.233Z,23.60
2022-09-09T09:11:21.061Z,23.08
2022-09-09T09:13:47.536Z,19.05
2022-09-09T09:16:26.190Z,21.73
2022-09-09T09:18:53.648Z,23.13
2022-09-09T09:21:23.243Z,19.95
2022-09-09T09:23:55.132Z,24.23
2022-09-09T09:26:23.233Z,23.73
2022-09-09T09:28:49.763Z,25.58
2022-09-09T09:31:16.293Z,21.25
2022-09-09T09:33:47.271Z,20.00
2022-09-09T09:36:16.462Z,28.35
2022-09-09T09:41:44.465Z,15.68
2022-09-09T09:44:24.664Z,18.27
2022-09-09T09:46:51.275Z,23.30
2022-09-09T09:49:18.442Z,22.70
2022-09-09T09:51:45.126Z,19.30
2022-09-09T09:54:17.174Z,16.48
2022-09-09T09:56:44.472Z,23.45
2022-09-09T09:59:39.143Z,12.52
2022-09-09T10:02:12.978Z,12.52
2022-09-09T10:04:40.020Z,12.88
2022-09-09T10:07:34.451Z,20.63
2022-09-09T10:10:00.999Z,20.25
2022-09-09T10:12:27.866Z,20.85
2022-09-09T10:14:54.358Z,21.52
2022-09-09T10:17:20.863Z,20.75
2022-09-09T10:20:05.781Z,17.52
2022-09-09T10:22:34.328Z,16.58
2022-09-09T10:25:22.047Z,16.33
2022-09-09T10:28:07.014Z,15.73
2022-09-09T10:30:36.566Z,23.58
2022-09-09T10:35:46.834Z,18.88
2022-09-09T10:38:28.862Z,19.15
2022-09-09T10:40:56.550Z,14.93
2022-09-09T10:43:38.074Z,19.10
2022-09-09T10:46:16.692Z,13.30
2022-09-09T10:48:49.492Z,18.30
2022-09-09T10:51:15.994Z,16.23
2022-09-09T10:53:49.238Z,20.55
2022-09-09T10:56:17.599Z,20.48
2022-09-09T10:58:49.037Z,11.80
2022-09-09T11:01:21.355Z,20.08
2022-09-09T11:03:51.180Z,13.95
2022-09-09T11:06:22.241Z,13.73
2022-09-09T11:08:52.713Z,18.13
2022-09-09T11:11:27.307Z,11.38
2022-09-09T11:13:55.424Z,21.77
2022-09-09T11:16:40.181Z,13.80
2022-09-09T11:19:16.118Z,12.07
2022-09-09T11:21:46.939Z,16.92
2022-09-09T11:24:19.295Z,21.40
2022-09-09T11:26:49.051Z,23.35
2022-09-09T11:29:15.894Z,23.25
2022-09-09T11:32:02.703Z,19.98
2022-09-09T11:34:40.720Z,17.20
2022-09-09T11:37:18.472Z,14.93
2022-09-09T11:39:51.730Z,15.02
2022-09-09T11:42:23.296Z,14.52
2022-09-09T11:44:49.878Z,11.63
2022-09-09T11:47:18.802Z,19.90
2022-09-09T11:49:46.695Z,18.38
2022-09-09T11:52:33.369Z,13.10
2022-09-09T11:55:09.028Z,17.55
2022-09-09T11:57:36.936Z,13.55
2022-09-09T12:00:04.798Z,10.60
2022-09-09T12:02:32.921Z,13.55
2022-09-09T12:05:06.703Z,10.52
2022-09-09T12:07:36.268Z,7.80
2022-09-09T12:10:20.304Z,14.80
2022-09-09T12:12:46.803Z,10.90
2022-09-09T12:15:13.233Z,11.95
2022-09-09T12:17:43.926Z,9.80
2022-09-09T12:20:14.588Z,7.63
2022-09-09T12:23:00.585Z,5.40
2022-09-09T12:25:45.823Z,10.23
2022-09-09T12:28:16.427Z,9.80
2022-09-09T12:31:01.211Z,16.52
2022-09-09T12:33:34.811Z,16.98
2022-09-09T12:36:01.927Z,6.18
2022-09-09T12:38:33.851Z,10.00
2022-09-09T12:41:01.499Z,18.02
2022-09-09T12:43:28.685Z,10.98
2022-09-09T12:46:04.529Z,8.80
2022-09-09T12:48:38.699Z,9.90
2022-09-09T12:51:07.386Z,11.25
2022-09-09T12:53:35.803Z,12.35
2022-09-09T12:56:09.900Z,8.30
2022-09-09T12:58:37.722Z,8.63
2022-09-09T13:01:07.939Z,10.55
2022-09-09T13:03:35.178Z,4.97
2022-09-09T13:06:13.019Z,7.47
2022-09-09T13:08:40.031Z,6.38
2022-09-09T13:11:11.300Z,10.82
2022-09-09T13:13:39.147Z,8.38
2022-09-09T13:16:08.286Z,9.52
2022-09-09T13:18:41.513Z,14.32
2022-09-09T13:21:08.539Z,11.80
2022-09-09T13:23:36.318Z,7.60
2022-09-09T13:26:23.778Z,11.80
2022-09-09T13:28:50.633Z,15.10
2022-09-09T13:31:22.008Z,6.07
2022-09-09T13:33:48.503Z,7.72
2022-09-09T13:36:18.319Z,8.40
2022-09-09T13:38:58.372Z,9.40
2022-09-09T13:41:26.039Z,11.50
2022-09-09T13:43:53.143Z,14.82
2022-09-09T13:46:25.835Z,9.35
2022-09-09T13:48:59.240Z,8.52
2022-09-09T13:51:38.047Z,12.57
2022-09-09T13:54:10.205Z,7.88
2022-09-09T13:56:37.560Z,13.45
2022-09-09T13:59:05.168Z,12.32
2022-09-09T14:01:32.444Z,12.98
2022-09-09T14:03:59.946Z,8.07
2022-09-09T14:06:26.483Z,9.10
2022-09-09T14:08:53.181Z,13.13
2022-09-09T14:11:20.326Z,14.98
2022-09-09T14:13:46.785Z,7.65
2022-09-09T14:16:13.240Z,10.40
2022-09-09T14:18:40.104Z,7.65
2022-09-09T14:21:06.637Z,8.93
2022-09-09T14:23:33.423Z,8.73
2022-09-09T14:25:59.882Z,9.07
2022-09-09T14:28:53.895Z,10.70
2022-09-09T14:31:14.533Z,12.38
2022-09-09T14:33:41.401Z,8.60
2022-09-09T14:36:07.997Z,7.00
2022-09-09T14:38:35.451Z,14.48
2022-09-09T14:41:04.275Z,4.53
2022-09-09T14:43:32.565Z,9.23
2022-09-09T14:46:06.740Z,12.07
2022-09-09T14:48:34.295Z,9.50
2022-09-09T14:51:17.466Z,6.07
2022-09-09T14:53:44.795Z,9.48
2022-09-09T14:56:19.349Z,5.60
2022-09-09T14:58:46.032Z,9.05
2022-09-09T15:01:13.667Z,5.50
2022-09-09T15:03:40.776Z,6.68
2022-09-09T15:06:11.571Z,7.88
2022-09-09T15:08:42.376Z,12.95
2022-09-09T15:11:09.686Z,8.98
2022-09-09T15:13:38.405Z,14.98
2022-09-09T15:16:06.371Z,10.77
2022-09-09T15:18:34.197Z,10.77
2022-09-09T15:21:02.465Z,13.75
2022-09-09T15:23:28.900Z,7.97
2022-09-09T15:25:56.912Z,11.45
2022-09-09T15:28:23.534Z,16.75
2022-09-09T15:30:53.494Z,14.45
2022-09-09T15:33:20.596Z,9.52
2022-09-09T15:35:47.082Z,13.93
2022-09-09T15:38:17.428Z,8.95
2022-09-09T15:40:44.620Z,11.70
2022-09-09T15:43:11.770Z,10.30
2022-09-09T15:45:38.590Z,10.57
2022-09-09T15:48:05.515Z,10.57
2022-09-09T15:50:33.458Z,14.43
2022-09-09T15:53:00.608Z,7.65
2022-09-09T15:55:27.062Z,11.25
2022-09-09T15:57:53.896Z,10.93
2022-09-09T16:00:21.134Z,11.15
2022-09-09T16:02:48.224Z,8.95
2022-09-09T16:05:14.859Z,9.52
2022-09-09T16:07:43.355Z,13.65
2022-09-09T16:10:10.482Z,11.35
2022-09-09T16:12:37.241Z,12.23
2022-09-09T16:15:03.844Z,6.63
2022-09-09T16:17:30.297Z,11.07
2022-09-09T16:19:58.681Z,8.57
2022-09-09T16:22:25.604Z,13.68
2022-09-09T16:24:52.086Z,11.45
2022-09-09T16:27:19.183Z,14.38
2022-09-09T16:29:46.375Z,15.70
2022-09-09T16:32:13.032Z,19.67
2022-09-09T16:34:39.555Z,12.38
2022-09-09T16:37:06.270Z,14.13
2022-09-09T16:39:32.992Z,11.00
2022-09-09T16:41:59.734Z,13.02
2022-09-09T16:44:27.220Z,12.20
2022-09-09T16:46:59.686Z,13.80
2022-09-09T16:49:28.575Z,7.70
2022-09-09T16:51:55.255Z,9.93
2022-09-09T16:54:23.051Z,11.32
2022-09-09T16:56:49.633Z,8.63
2022-09-09T16:59:17.583Z,11.27
2022-09-09T17:01:45.122Z,8.32
2022-09-09T17:04:14.259Z,11.60
2022-09-09T17:06:42.381Z,6.80
2022-09-09T17:09:10.330Z,9.50
2022-09-09T17:11:37.872Z,8.65
2022-09-09T17:14:04.772Z,9.63
2022-09-09T17:16:32.156Z,12.57
2022-09-09T17:18:59.666Z,13.02
2022-09-09T17:21:26.791Z,6.63
2022-09-09T17:23:53.611Z,9.25
2022-09-09T17:26:21.718Z,8.93
2022-09-09T17:28:48.215Z,4.70
2022-09-09T17:31:16.145Z,11.48
2022-09-09T17:33:44.195Z,6.85
2022-09-09T17:36:12.281Z,3.50
2022-09-09T17:38:39.366Z,5.85
2022-09-09T17:41:08.797Z,11.35
2022-09-09T17:43:36.944Z,10.95
2022-09-09T17:46:22.397Z,5.35
2022-09-09T17:48:50.209Z,7.13
2022-09-09T17:51:19.938Z,6.78
2022-09-09T17:53:47.638Z,14.68
2022-09-09T17:56:15.455Z,9.40
2022-09-09T17:58:42.139Z,8.73
2022-09-09T18:01:10.469Z,6.05
2022-09-09T18:03:38.224Z,7.88
2022-09-09T18:06:05.947Z,5.07
2022-09-09T18:08:36.578Z,4.97
2022-09-09T18:11:04.228Z,6.38
2022-09-09T18:13:30.870Z,6.68
2022-09-09T18:15:57.595Z,3.75
2022-09-09T18:18:24.175Z,11.85
2022-09-09T18:20:58.386Z,9.40
2022-09-09T18:23:24.914Z,7.50
2022-09-09T18:25:51.926Z,5.25
2022-09-09T18:28:20.260Z,6.57
2022-09-09T18:30:49.715Z,3.78
2022-09-09T18:33:16.365Z,8.02
2022-09-09T18:35:43.722Z,9.18
2022-09-09T18:38:10.210Z,8.02
2022-09-09T18:40:37.922Z,7.53
2022-09-09T18:43:05.331Z,4.80
2022-09-09T18:45:35.284Z,5.63
2022-09-09T18:48:02.999Z,4.30
2022-09-09T18:50:29.541Z,4.18
2022-09-09T18:52:56.050Z,7.03
2022-09-09T18:55:22.671Z,5.63
2022-09-09T18:57:50.037Z,9.02
2022-09-09T19:00:16.677Z,3.13
2022-09-09T19:02:43.989Z,4.30
2022-09-09T19:05:10.456Z,10.93
2022-09-09T19:07:37.004Z,8.43
2022-09-09T19:10:03.778Z,4.50
2022-09-09T19:12:31.092Z,5.35
2022-09-09T19:14:57.552Z,5.00
2022-09-09T19:17:24.940Z,3.95
2022-09-09T19:19:51.854Z,6.80
2022-09-09T19:22:18.333Z,7.18
2022-09-09T19:24:45.793Z,6.07
2022-09-09T19:27:12.379Z,5.28
2022-09-09T19:29:43.220Z,6.68
2022-09-09T19:34:57.558Z,10.10
2022-09-09T19:37:24.062Z,9.02
2022-09-09T19:39:50.868Z,8.27
2022-09-09T19:42:17.461Z,6.30
2022-09-09T19:44:43.962Z,9.07
2022-09-09T19:47:10.536Z,5.38
2022-09-09T19:49:37.343Z,11.27
2022-09-09T19:52:04.094Z,6.10
2022-09-09T19:54:30.611Z,5.70
2022-09-09T19:56:57.086Z,6.95
2022-09-09T19:59:23.820Z,7.63
2022-09-09T20:01:50.450Z,9.75
2022-09-09T20:04:17.848Z,12.30
2022-09-09T20:06:44.552Z,6.03
2022-09-09T20:09:12.346Z,5.90
2022-09-09T20:11:39.397Z,7.90
2022-09-09T20:14:05.908Z,4.80
2022-09-09T20:16:32.415Z,4.97
2022-09-09T20:19:01.082Z,3.55
2022-09-09T20:21:33.018Z,11.23
2022-09-09T20:24:00.342Z,5.93
2022-09-09T20:26:28.327Z,7.22
2022-09-09T20:28:55.327Z,5.05
2022-09-09T20:31:29.370Z,8.70
2022-09-09T20:33:56.588Z,9.15
2022-09-09T20:36:26.627Z,6.13
2022-09-09T20:38:54.537Z,7.90
2022-09-09T20:41:22.910Z,8.93
2022-09-09T20:43:50.155Z,5.35
2022-09-09T20:46:18.171Z,6.18
2022-09-09T20:48:45.351Z,4.70
2022-09-09T20:51:13.325Z,5.43
2022-09-09T20:53:40.163Z,4.88
2022-09-09T20:56:07.367Z,4.53
2022-09-09T20:58:34.444Z,3.47
2022-09-09T21:01:01.513Z,9.55
2022-09-09T21:03:29.960Z,5.88
2022-09-09T21:05:58.243Z,5.97
2022-09-09T21:08:25.716Z,5.03
2022-09-09T21:10:52.207Z,3.85
2022-09-09T21:13:19.225Z,5.40
2022-09-09T21:15:46.304Z,7.07
2022-09-09T21:18:12.760Z,7.10
2022-09-09T21:20:39.257Z,5.07
2022-09-09T21:23:07.429Z,2.38
2022-09-09T21:25:33.937Z,4.60
2022-09-09T21:28:00.441Z,3.33
2022-09-09T21:30:36.839Z,3.80
2022-09-09T21:33:05.937Z,6.20
2022-09-09T21:35:35.200Z,3.78
2022-09-09T21:38:03.306Z,8.93
2022-09-09T21:40:30.008Z,6.20
2022-09-09T21:42:56.504Z,7.07
2022-09-09T21:45:23.254Z,5.10
2022-09-09T21:47:51.147Z,5.60
2022-09-09T21:50:18.140Z,6.35
2022-09-09T21:52:44.602Z,7.95
2022-09-09T21:55:11.124Z,4.03
2022-09-09T21:57:37.755Z,7.03
2022-09-09T22:00:07.348Z,5.20
2022-09-09T22:02:35.861Z,8.48
2022-09-09T22:05:02.444Z,3.95
2022-09-09T22:07:28.872Z,4.07
2022-09-09T22:09:55.327Z,4.30
2022-09-09T22:12:22.011Z,5.70
2022-09-09T22:14:49.216Z,5.28
2022-09-09T22:17:15.852Z,4.97
2022-09-09T22:19:42.274Z,4.68
2022-09-09T22:22:08.762Z,4.55
2022-09-09T22:24:35.705Z,10.20
2022-09-09T22:27:03.713Z,7.07
2022-09-09T22:29:31.774Z,7.05
2022-09-09T22:31:58.534Z,6.45
2022-09-09T22:34:28.337Z,6.60
2022-09-09T22:36:55.302Z,4.35
2022-09-09T22:39:21.962Z,5.55
2022-09-09T22:41:49.151Z,4.57
2022-09-09T22:44:15.646Z,8.57
2022-09-09T22:46:42.144Z,6.13
2022-09-09T22:49:08.727Z,10.35
2022-09-09T22:51:35.211Z,6.82
2022-09-09T22:54:01.728Z,11.15
2022-09-09T22:56:29.474Z,7.13
2022-09-09T22:58:56.427Z,9.93
2022-09-09T23:01:24.183Z,9.25
2022-09-09T23:03:51.427Z,9.15
2022-09-09T23:06:22.826Z,8.20
2022-09-09T23:09:08.258Z,5.85
2022-09-09T23:11:37.085Z,8.55
2022-09-09T23:14:05.199Z,6.07
2022-09-09T23:16:33.906Z,6.90
2022-09-09T23:19:01.063Z,6.93
2022-09-09T23:21:28.844Z,8.80
2022-09-09T23:23:56.405Z,8.80
2022-09-09T23:26:24.081Z,9.23
2022-09-09T23:28:52.000Z,9.30
2022-09-09T23:31:22.826Z,11.18
2022-09-09T23:33:49.507Z,8.55
2022-09-09T23:36:17.931Z,12.77
2022-09-09T23:38:44.559Z,19.15
2022-09-09T23:41:12.762Z,18.30
2022-09-09T23:43:39.712Z,11.07
2022-09-09T23:46:10.929Z,17.77
2022-09-09T23:48:38.746Z,17.38
2022-09-09T23:51:06.192Z,15.93
2022-09-09T23:53:32.996Z,20.10
2022-09-09T23:56:03.130Z,17.05
2022-09-09T23:58:31.026Z,15.93
